createdAt,value
2017-07-18T00:01:21.823Z,18.60
2017-07-18T00:03:56.931Z,18.60
2017-07-18T00:06:25.963Z,18.50
2017-07-18T00:08:54.003Z,18.30
2017-07-18T00:11:26.299Z,18.10
2017-07-18T00:13:56.291Z,17.90
2017-07-18T00:16:30.582Z,17.70
2017-07-18T00:21:57.587Z,17.70
2017-07-18T00:24:25.644Z,17.70
2017-07-18T00:26:59.527Z,17.60
2017-07-18T00:29:27.592Z,17.60
2017-07-18T00:32:03.360Z,17.50
2017-07-18T00:34:33.395Z,17.40
2017-07-18T00:37:07.395Z,17.30
2017-07-18T00:39:41.207Z,17.20
2017-07-18T00:42:15.560Z,17.10
2017-07-18T00:44:56.727Z,17.00
2017-07-18T00:47:25.738Z,16.90
2017-07-18T00:49:54.682Z,16.90
2017-07-18T00:52:23.680Z,16.90
2017-07-18T00:54:51.739Z,17.10
2017-07-18T00:57:27.911Z,17.40
2017-07-18T00:59:55.983Z,17.70
2017-07-18T01:02:29.311Z,17.90
2017-07-18T01:05:00.866Z,18.10
2017-07-18T01:07:29.815Z,18.30
2017-07-18T01:10:02.939Z,18.30
2017-07-18T01:12:34.555Z,18.30
2017-07-18T01:15:06.955Z,18.40
2017-07-18T01:17:39.551Z,18.30
2017-07-18T01:20:09.531Z,18.20
2017-07-18T01:22:49.237Z,18.10
2017-07-18T01:25:18.303Z,18.10
2017-07-18T01:27:50.654Z,18.10
2017-07-18T01:30:23.144Z,18.10
2017-07-18T01:32:55.007Z,18.10
2017-07-18T01:35:32.963Z,18.10
2017-07-18T01:38:09.547Z,18.10
2017-07-18T01:40:38.783Z,18.10
2017-07-18T01:43:07.762Z,18.00
2017-07-18T01:45:39.494Z,18.00
2017-07-18T01:48:09.511Z,18.00
2017-07-18T01:50:38.500Z,17.90
2017-07-18T01:53:07.483Z,17.90
2017-07-18T01:55:48.918Z,17.90
2017-07-18T01:58:21.071Z,17.70
2017-07-18T02:00:59.346Z,17.50
2017-07-18T02:03:29.434Z,17.30
2017-07-18T02:06:11.304Z,17.10
2017-07-18T02:08:41.315Z,17.00
2017-07-18T02:11:13.038Z,16.90
2017-07-18T02:13:41.094Z,16.90
2017-07-18T02:16:12.347Z,16.80
2017-07-18T02:18:44.886Z,16.70
2017-07-18T02:21:12.914Z,16.70
2017-07-18T02:23:52.920Z,16.60
2017-07-18T02:26:30.546Z,16.60
2017-07-18T02:29:02.297Z,16.50
2017-07-18T02:31:53.798Z,16.40
2017-07-18T02:34:23.746Z,16.40
2017-07-18T02:37:02.430Z,16.30
2017-07-18T02:39:34.426Z,16.20
2017-07-18T02:42:06.982Z,16.10
2017-07-18T02:44:47.035Z,16.00
2017-07-18T02:47:19.938Z,16.00
2017-07-18T02:49:53.542Z,16.00
2017-07-18T02:52:35.471Z,16.00
2017-07-18T02:55:06.578Z,16.00
2017-07-18T02:57:40.163Z,16.00
2017-07-18T03:00:08.219Z,15.90
2017-07-18T03:02:38.167Z,15.90
2017-07-18T03:05:11.914Z,16.00
2017-07-18T03:07:41.866Z,16.00
2017-07-18T03:10:17.634Z,16.00
2017-07-18T03:12:45.662Z,15.90
2017-07-18T03:15:14.681Z,15.90
2017-07-18T03:17:44.886Z,15.90
2017-07-18T03:20:17.386Z,15.90
2017-07-18T03:22:46.371Z,15.90
2017-07-18T03:25:17.421Z,15.90
2017-07-18T03:27:53.473Z,16.00
2017-07-18T03:30:23.490Z,15.90
2017-07-18T03:32:52.451Z,15.90
2017-07-18T03:35:37.082Z,15.80
2017-07-18T03:38:08.175Z,15.80
2017-07-18T03:40:36.242Z,15.80
2017-07-18T03:43:05.277Z,15.80
2017-07-18T03:45:43.550Z,15.90
2017-07-18T03:48:22.146Z,15.90
2017-07-18T03:50:52.244Z,16.00
2017-07-18T03:53:24.765Z,15.90
2017-07-18T03:55:54.801Z,16.00
2017-07-18T03:58:24.801Z,15.90
2017-07-18T04:00:53.818Z,15.90
2017-07-18T04:03:47.413Z,16.00
2017-07-18T04:06:19.742Z,16.00
2017-07-18T04:08:48.771Z,16.00
2017-07-18T04:11:23.425Z,16.20
2017-07-18T04:13:56.345Z,16.50
2017-07-18T04:16:28.959Z,16.80
2017-07-18T04:19:02.643Z,16.90
2017-07-18T04:21:52.173Z,17.00
2017-07-18T04:24:20.222Z,17.10
2017-07-18T04:26:50.788Z,17.30
2017-07-18T04:29:26.537Z,17.40
2017-07-18T04:32:00.437Z,17.50
2017-07-18T04:34:35.673Z,17.50
2017-07-18T04:37:04.675Z,17.40
2017-07-18T04:39:38.908Z,17.30
2017-07-18T04:42:07.890Z,17.30
2017-07-18T04:44:35.937Z,17.30
2017-07-18T04:47:08.080Z,17.40
2017-07-18T04:49:37.108Z,17.50
2017-07-18T04:52:07.146Z,17.60
2017-07-18T04:54:37.186Z,17.70
2017-07-18T04:57:11.056Z,17.80
2017-07-18T04:59:54.140Z,17.90
2017-07-18T05:02:25.105Z,18.10
2017-07-18T05:04:57.701Z,18.30
2017-07-18T05:07:27.732Z,18.50
2017-07-18T05:09:55.778Z,18.60
2017-07-18T05:12:31.501Z,18.80
2017-07-18T05:15:03.017Z,18.90
2017-07-18T05:17:37.960Z,19.00
2017-07-18T05:20:17.461Z,19.10
2017-07-18T05:23:06.202Z,19.10
2017-07-18T05:25:59.888Z,19.10
2017-07-18T05:28:38.301Z,19.20
2017-07-18T05:31:10.636Z,19.20
2017-07-18T05:33:46.956Z,19.30
2017-07-18T05:39:13.383Z,19.40
2017-07-18T05:41:42.424Z,19.60
2017-07-18T05:44:13.980Z,20.00
2017-07-18T05:46:45.721Z,20.30
2017-07-18T05:49:17.408Z,20.60
2017-07-18T05:51:47.260Z,20.60
2017-07-18T06:00:14.468Z,21.10
2017-07-18T06:08:46.953Z,21.20
2017-07-18T06:11:39.275Z,21.50
2017-07-18T06:14:31.609Z,21.50
2017-07-18T06:17:03.400Z,21.60
2017-07-18T06:31:23.839Z,22.80
2017-07-18T06:36:59.664Z,23.20
2017-07-18T06:42:28.523Z,24.00
2017-07-18T06:45:06.692Z,24.30
2017-07-18T06:47:52.150Z,24.40
2017-07-18T06:50:26.240Z,24.60
2017-07-18T06:53:13.384Z,24.60
2017-07-18T07:04:27.720Z,25.70
2017-07-18T07:07:03.389Z,25.60
2017-07-18T07:12:26.296Z,25.70
2017-07-18T07:15:11.372Z,25.80
2017-07-18T07:17:51.104Z,25.90
2017-07-18T07:23:13.927Z,26.30
2017-07-18T07:25:50.450Z,26.70
2017-07-18T07:28:23.317Z,26.80
2017-07-18T07:31:15.703Z,27.00
2017-07-18T07:33:54.230Z,27.40
2017-07-18T07:39:36.395Z,27.50
2017-07-18T07:42:15.815Z,27.80
2017-07-18T07:45:07.639Z,28.10
2017-07-18T07:50:50.130Z,28.00
2017-07-18T07:53:24.831Z,28.20
2017-07-18T07:55:55.136Z,28.10
2017-07-18T08:01:24.035Z,28.80
2017-07-18T08:06:45.830Z,29.30
2017-07-18T08:09:37.399Z,29.20
2017-07-18T08:12:15.675Z,29.40
2017-07-18T08:14:45.626Z,29.40
2017-07-18T08:17:26.318Z,29.30
2017-07-18T08:19:56.243Z,29.50
2017-07-18T08:22:25.162Z,29.20
2017-07-18T08:25:17.227Z,29.00
2017-07-18T08:28:03.002Z,29.30
2017-07-18T08:30:50.830Z,28.50
2017-07-18T08:33:28.942Z,28.10
2017-07-18T08:36:05.509Z,28.60
2017-07-18T08:38:47.662Z,29.30
2017-07-18T08:44:10.539Z,30.00
2017-07-18T08:46:50.138Z,30.20
2017-07-18T08:49:33.309Z,30.70
2017-07-18T08:52:24.225Z,31.10
2017-07-18T08:57:52.898Z,31.80
2017-07-18T09:00:27.373Z,32.40
2017-07-18T09:09:02.610Z,32.70
2017-07-18T09:11:39.165Z,32.70
2017-07-18T09:14:08.110Z,32.10
2017-07-18T09:16:36.143Z,31.40
2017-07-18T09:19:04.169Z,31.70
2017-07-18T09:21:36.218Z,32.30
2017-07-18T09:24:07.749Z,31.80
2017-07-18T09:29:32.498Z,32.50
2017-07-18T09:32:08.745Z,33.10
2017-07-18T09:34:47.365Z,32.90
2017-07-18T09:37:17.414Z,33.20
2017-07-18T09:42:38.877Z,33.90
2017-07-18T09:45:10.817Z,33.60
2017-07-18T09:47:42.389Z,32.70
2017-07-18T09:50:10.413Z,33.30
2017-07-18T09:52:49.221Z,33.90
2017-07-18T09:55:18.163Z,34.50
2017-07-18T09:58:04.981Z,35.40
2017-07-18T10:03:13.301Z,35.90
2017-07-18T10:08:38.509Z,34.90
2017-07-18T10:11:08.497Z,34.80
2017-07-18T10:14:01.357Z,34.60
2017-07-18T10:16:40.585Z,33.90
2017-07-18T10:22:07.589Z,35.00
2017-07-18T10:24:39.645Z,34.50
2017-07-18T10:27:14.881Z,35.40
2017-07-18T10:30:07.785Z,35.80
2017-07-18T10:33:01.033Z,36.40
2017-07-18T10:38:31.896Z,36.10
2017-07-18T10:43:56.757Z,35.60
2017-07-18T10:52:29.092Z,36.00
2017-07-18T10:55:07.908Z,35.50
2017-07-18T10:57:55.661Z,35.10
2017-07-18T11:00:37.424Z,34.80
2017-07-18T11:03:08.553Z,35.60
2017-07-18T11:05:53.318Z,34.40
2017-07-18T11:11:26.281Z,35.90
2017-07-18T11:14:06.756Z,35.10
2017-07-18T11:16:39.541Z,35.20
2017-07-18T11:19:07.596Z,36.00
2017-07-18T11:21:36.536Z,36.90
2017-07-18T11:24:22.544Z,38.30
2017-07-18T11:26:51.465Z,38.70
2017-07-18T11:32:18.504Z,37.00
2017-07-18T11:34:50.080Z,35.30
2017-07-18T11:37:29.320Z,36.50
2017-07-18T11:40:08.966Z,37.90
2017-07-18T11:42:47.792Z,39.60
2017-07-18T11:45:21.544Z,40.10
2017-07-18T11:47:51.754Z,38.80
2017-07-18T11:50:19.768Z,39.30
2017-07-18T11:53:00.600Z,39.80
2017-07-18T11:55:30.528Z,38.40
2017-07-18T11:58:00.536Z,37.10
2017-07-18T12:00:31.840Z,36.50
2017-07-18T12:03:08.172Z,36.10
2017-07-18T12:05:46.880Z,36.60
2017-07-18T12:08:16.820Z,36.70
2017-07-18T12:10:45.743Z,35.00
2017-07-18T12:16:08.663Z,35.00
2017-07-18T12:24:35.652Z,37.90
2017-07-18T12:27:09.411Z,37.90
2017-07-18T12:29:57.717Z,36.60
2017-07-18T12:38:12.311Z,37.90
2017-07-18T12:40:52.828Z,37.00
2017-07-18T12:43:21.739Z,35.90
2017-07-18T12:45:50.655Z,35.00
2017-07-18T12:48:18.690Z,32.80
2017-07-18T12:51:00.671Z,32.80
2017-07-18T12:53:39.779Z,33.70
2017-07-18T12:56:19.983Z,35.40
2017-07-18T12:58:55.739Z,35.90
2017-07-18T13:01:23.775Z,36.40
2017-07-18T13:03:55.227Z,37.50
2017-07-18T13:06:27.754Z,38.40
2017-07-18T13:09:03.963Z,38.70
2017-07-18T13:11:43.571Z,37.50
2017-07-18T13:17:07.719Z,36.90
2017-07-18T13:19:39.303Z,34.90
2017-07-18T13:22:08.210Z,34.00
2017-07-18T13:24:47.026Z,34.00
2017-07-18T13:27:15.038Z,32.40
2017-07-18T13:29:55.770Z,31.00
2017-07-18T13:32:32.746Z,30.40
2017-07-18T13:35:08.222Z,30.50
2017-07-18T13:37:42.915Z,30.90
2017-07-18T13:40:15.450Z,31.30
2017-07-18T13:42:43.474Z,31.60
2017-07-18T13:45:12.394Z,32.00
2017-07-18T13:47:43.954Z,32.20
2017-07-18T13:50:15.442Z,32.30
2017-07-18T13:53:00.410Z,32.50
2017-07-18T13:55:33.630Z,34.30
2017-07-18T13:58:02.558Z,36.20
2017-07-18T14:00:33.790Z,37.00
2017-07-18T14:03:03.766Z,37.60
2017-07-18T14:05:34.230Z,37.90
2017-07-18T14:08:08.634Z,37.30
2017-07-18T14:10:37.614Z,35.80
2017-07-18T14:13:17.722Z,34.90
2017-07-18T14:16:05.478Z,34.50
2017-07-18T14:18:36.953Z,35.00
2017-07-18T14:21:16.258Z,36.70
2017-07-18T14:23:50.646Z,37.30
2017-07-18T14:26:37.826Z,36.50
2017-07-18T14:29:10.998Z,36.20
2017-07-18T14:31:53.713Z,35.00
2017-07-18T14:34:34.261Z,35.80
2017-07-18T14:37:07.946Z,36.50
2017-07-18T14:40:00.670Z,36.70
2017-07-18T14:42:32.185Z,35.20
2017-07-18T14:45:04.634Z,34.00
2017-07-18T14:47:38.950Z,34.80
2017-07-18T14:50:08.889Z,36.00
2017-07-18T14:52:40.351Z,36.70
2017-07-18T14:55:08.396Z,36.80
2017-07-18T14:57:41.409Z,35.80
2017-07-18T15:00:09.453Z,35.50
2017-07-18T15:02:38.449Z,36.20
2017-07-18T15:05:18.833Z,35.00
2017-07-18T15:07:47.785Z,33.40
2017-07-18T15:10:16.818Z,32.00
2017-07-18T15:12:45.805Z,31.40
2017-07-18T15:15:13.829Z,30.80
2017-07-18T15:17:46.892Z,30.60
2017-07-18T15:20:14.913Z,30.50
2017-07-18T15:22:53.525Z,30.50
2017-07-18T15:25:23.449Z,30.40
2017-07-18T15:27:56.031Z,30.30
2017-07-18T15:30:32.266Z,30.50
2017-07-18T15:33:02.246Z,32.00
2017-07-18T15:35:32.173Z,33.90
2017-07-18T15:38:06.737Z,35.50
2017-07-18T15:40:36.749Z,36.10
2017-07-18T15:43:06.696Z,35.80
2017-07-18T15:45:35.921Z,35.60
2017-07-18T15:48:05.977Z,35.30
2017-07-18T15:50:34.017Z,35.70
2017-07-18T15:53:07.797Z,35.30
2017-07-18T15:55:37.721Z,34.50
2017-07-18T15:58:08.769Z,34.50
2017-07-18T16:01:00.053Z,34.90
2017-07-18T16:03:29.065Z,34.80
2017-07-18T16:06:10.305Z,34.90
2017-07-18T16:11:31.353Z,35.50
2017-07-18T16:14:01.277Z,35.50
2017-07-18T16:16:30.253Z,35.20
2017-07-18T16:19:08.081Z,35.30
2017-07-18T16:21:56.805Z,35.80
2017-07-18T16:24:25.736Z,34.70
2017-07-18T16:26:55.669Z,33.00
2017-07-18T16:29:23.713Z,32.80
2017-07-18T16:32:08.444Z,32.80
2017-07-18T16:35:00.520Z,32.80
2017-07-18T16:37:46.297Z,32.90
2017-07-18T16:40:15.249Z,32.80
2017-07-18T16:42:47.409Z,32.60
2017-07-18T16:45:20.602Z,32.60
2017-07-18T16:47:54.136Z,32.60
2017-07-18T16:50:40.000Z,33.00
2017-07-18T16:53:08.921Z,33.10
2017-07-18T16:55:40.672Z,33.50
2017-07-18T16:58:08.709Z,32.50
2017-07-18T17:00:38.504Z,32.40
2017-07-18T17:03:15.160Z,32.00
2017-07-18T17:05:45.107Z,32.20
2017-07-18T17:08:14.100Z,32.50
2017-07-18T17:10:44.044Z,32.80
2017-07-18T17:13:14.020Z,32.10
2017-07-18T17:15:47.745Z,31.60
2017-07-18T17:18:32.557Z,31.80
2017-07-18T17:21:07.296Z,31.60
2017-07-18T17:23:39.184Z,31.80
2017-07-18T17:26:09.116Z,32.20
2017-07-18T17:28:38.036Z,32.30
2017-07-18T17:31:06.968Z,31.90
2017-07-18T17:33:55.283Z,31.70
2017-07-18T17:36:34.520Z,31.70
2017-07-18T17:39:05.488Z,31.90
2017-07-18T17:41:42.759Z,31.60
2017-07-18T17:44:10.796Z,31.50
2017-07-18T17:46:39.752Z,31.40
2017-07-18T17:49:07.948Z,31.30
2017-07-18T17:51:36.950Z,31.10
2017-07-18T17:54:08.792Z,31.00
2017-07-18T17:56:36.828Z,30.70
2017-07-18T17:59:05.875Z,30.40
2017-07-18T18:01:35.897Z,30.20
2017-07-18T18:04:08.887Z,29.70
2017-07-18T18:06:41.327Z,29.50
2017-07-18T18:09:09.351Z,29.50
2017-07-18T18:11:37.374Z,29.40
2017-07-18T18:14:05.412Z,29.60
2017-07-18T18:16:34.118Z,29.70
2017-07-18T18:19:02.169Z,29.60
2017-07-18T18:21:31.195Z,29.10
2017-07-18T18:23:59.224Z,28.50
2017-07-18T18:26:27.268Z,28.00
2017-07-18T18:28:55.337Z,27.50
2017-07-18T18:31:23.364Z,27.30
2017-07-18T18:33:54.967Z,27.00
2017-07-18T18:36:23.004Z,26.80
2017-07-18T18:38:51.984Z,26.70
2017-07-18T18:41:28.232Z,26.50
2017-07-18T18:44:06.843Z,26.40
2017-07-18T18:46:39.868Z,26.20
2017-07-18T18:49:07.907Z,26.10
2017-07-18T18:51:41.321Z,25.90
2017-07-18T18:54:10.270Z,25.80
2017-07-18T18:56:44.928Z,25.70
2017-07-18T18:59:14.863Z,25.60
2017-07-18T19:01:43.863Z,25.50
2017-07-18T19:04:12.075Z,25.30
2017-07-18T19:06:42.193Z,25.20
2017-07-18T19:09:10.243Z,25.10
2017-07-18T19:11:43.508Z,25.00
2017-07-18T19:14:11.615Z,24.90
2017-07-18T19:16:40.555Z,24.80
2017-07-18T19:19:08.719Z,24.70
2017-07-18T19:21:40.814Z,24.60
2017-07-18T19:24:12.396Z,24.50
2017-07-18T19:26:44.735Z,24.50
2017-07-18T19:29:16.254Z,24.40
2017-07-18T19:31:47.843Z,24.40
2017-07-18T19:34:22.983Z,24.30
2017-07-18T19:36:51.011Z,24.20
2017-07-18T19:39:19.048Z,24.10
2017-07-18T19:41:47.119Z,24.10
2017-07-18T19:44:15.223Z,24.00
2017-07-18T19:46:53.566Z,24.00
2017-07-18T19:49:22.666Z,23.90
2017-07-18T19:51:52.478Z,23.80
2017-07-18T19:54:25.431Z,23.80
2017-07-18T19:56:54.426Z,23.80
2017-07-18T19:59:22.475Z,23.80
2017-07-18T20:01:56.583Z,23.70
2017-07-18T20:04:28.355Z,23.70
2017-07-18T20:07:02.639Z,23.70
2017-07-18T20:09:35.750Z,23.60
2017-07-18T20:12:17.430Z,23.60
2017-07-18T20:14:45.451Z,23.50
2017-07-18T20:17:13.499Z,23.50
2017-07-18T20:19:41.538Z,23.50
2017-07-18T20:22:11.459Z,23.40
2017-07-18T20:24:56.942Z,23.50
2017-07-18T20:27:24.993Z,23.40
2017-07-18T20:29:56.542Z,23.40
2017-07-18T20:32:31.174Z,23.40
2017-07-18T20:35:02.871Z,23.30
2017-07-18T20:37:31.814Z,23.30
2017-07-18T20:39:59.854Z,23.30
2017-07-18T20:42:32.446Z,23.20
2017-07-18T20:45:02.378Z,23.20
2017-07-18T20:47:40.122Z,23.20
2017-07-18T20:50:11.874Z,23.10
2017-07-18T20:52:41.079Z,23.10
2017-07-18T20:55:14.054Z,23.00
2017-07-18T20:57:42.158Z,23.00
2017-07-18T21:00:12.315Z,22.90
2017-07-18T21:02:46.071Z,22.90
2017-07-18T21:05:16.074Z,22.90
2017-07-18T21:07:44.090Z,23.00
2017-07-18T21:10:13.031Z,23.00
2017-07-18T21:12:47.334Z,23.00
2017-07-18T21:15:18.217Z,23.00
2017-07-18T21:17:50.042Z,22.90
2017-07-18T21:20:25.390Z,22.90
2017-07-18T21:22:54.370Z,23.00
2017-07-18T21:25:26.570Z,23.00
2017-07-18T21:27:58.130Z,23.00
2017-07-18T21:30:28.129Z,23.10
2017-07-18T21:33:06.762Z,23.00
2017-07-18T21:35:34.807Z,23.00
2017-07-18T21:38:06.429Z,22.90
2017-07-18T21:40:34.574Z,22.80
2017-07-18T21:43:04.185Z,22.70
2017-07-18T21:45:36.538Z,22.70
2017-07-18T21:48:11.818Z,22.60
2017-07-18T21:50:51.357Z,22.60
2017-07-18T21:53:19.385Z,22.50
2017-07-18T21:55:51.074Z,22.50
2017-07-18T21:58:21.016Z,22.40
2017-07-18T22:00:49.057Z,22.40
2017-07-18T22:03:18.124Z,22.30
2017-07-18T22:05:51.085Z,22.30
2017-07-18T22:08:23.453Z,22.30
2017-07-18T22:10:56.914Z,22.30
2017-07-18T22:13:25.973Z,22.30
2017-07-18T22:15:54.953Z,22.30
2017-07-18T22:18:23.925Z,22.30
2017-07-18T22:20:53.968Z,22.30
2017-07-18T22:23:22.237Z,22.30
2017-07-18T22:25:51.206Z,22.30
2017-07-18T22:28:20.246Z,22.20
2017-07-18T22:30:49.233Z,22.20
2017-07-18T22:33:18.185Z,22.20
2017-07-18T22:35:47.209Z,22.20
2017-07-18T22:38:19.861Z,22.20
2017-07-18T22:40:48.864Z,22.20
2017-07-18T22:43:16.897Z,22.20
2017-07-18T22:45:48.506Z,22.20
2017-07-18T22:48:26.368Z,22.10
2017-07-18T22:50:54.397Z,22.00
2017-07-18T22:53:24.357Z,22.00
2017-07-18T22:55:53.289Z,22.00
2017-07-18T22:58:22.228Z,22.00
2017-07-18T23:00:50.233Z,21.90
2017-07-18T23:03:19.177Z,21.90
2017-07-18T23:05:48.193Z,21.90
2017-07-18T23:08:16.229Z,21.90
2017-07-18T23:10:45.260Z,22.00
2017-07-18T23:13:14.233Z,21.90
2017-07-18T23:15:52.768Z,21.90
2017-07-18T23:18:21.752Z,21.90
2017-07-18T23:20:49.781Z,21.90
2017-07-18T23:23:18.853Z,21.90
2017-07-18T23:25:48.773Z,21.90
2017-07-18T23:28:18.724Z,21.90
2017-07-18T23:30:47.864Z,21.90
2017-07-18T23:33:15.888Z,21.90
2017-07-18T23:35:44.854Z,21.90
2017-07-18T23:38:14.836Z,21.90
2017-07-18T23:40:42.856Z,21.80
2017-07-18T23:43:10.908Z,21.80
2017-07-18T23:45:40.832Z,21.80
2017-07-18T23:48:08.860Z,21.80
2017-07-18T23:50:41.828Z,21.70
2017-07-18T23:53:18.422Z,21.70
2017-07-18T23:55:51.016Z,21.70
2017-07-18T23:58:19.980Z,21.70
